createdAt,value
2023-01-27T00:01:37.674Z,20.13
2023-01-27T00:04:02.312Z,23.08
2023-01-27T00:06:32.587Z,28.98
2023-01-27T00:08:57.185Z,27.58
2023-01-27T00:11:38.922Z,28.75
2023-01-27T00:14:05.623Z,29.02
2023-01-27T00:16:30.131Z,28.75
2023-01-27T00:18:54.828Z,30.17
2023-01-27T00:21:36.586Z,29.88
2023-01-27T00:24:18.634Z,29.77
2023-01-27T00:26:43.202Z,26.80
2023-01-27T00:29:09.383Z,29.75
2023-01-27T00:31:51.437Z,19.75
2023-01-27T00:34:16.189Z,22.52
2023-01-27T00:36:43.187Z,23.23
2023-01-27T00:39:09.274Z,27.33
2023-01-27T00:41:34.517Z,19.40
2023-01-27T00:43:59.073Z,18.25
2023-01-27T00:46:26.850Z,24.67
2023-01-27T00:48:51.935Z,24.50
2023-01-27T00:51:17.695Z,23.58
2023-01-27T00:53:43.012Z,27.25
2023-01-27T00:56:08.711Z,29.02
2023-01-27T00:58:34.130Z,19.73
2023-01-27T01:01:00.823Z,24.63
2023-01-27T01:03:27.611Z,22.60
2023-01-27T01:05:52.513Z,17.55
2023-01-27T01:08:17.404Z,17.20
2023-01-27T01:10:42.402Z,19.42
2023-01-27T01:13:10.244Z,18.63
2023-01-27T01:15:37.955Z,19.52
2023-01-27T01:18:04.204Z,22.52
2023-01-27T01:20:30.377Z,18.25
2023-01-27T01:22:55.118Z,25.52
2023-01-27T01:25:19.983Z,18.50
2023-01-27T01:27:46.687Z,19.30
2023-01-27T01:30:13.575Z,24.35
2023-01-27T01:32:38.328Z,26.73
2023-01-27T01:35:03.161Z,18.15
2023-01-27T01:37:30.291Z,18.15
2023-01-27T01:39:54.955Z,22.73
2023-01-27T01:42:19.866Z,23.45
2023-01-27T01:44:46.177Z,19.20
2023-01-27T01:47:16.527Z,23.00
2023-01-27T01:49:43.447Z,18.15
2023-01-27T01:52:11.861Z,23.17
2023-01-27T01:54:41.365Z,25.00
2023-01-27T01:57:09.955Z,22.67
2023-01-27T01:59:38.104Z,17.75
2023-01-27T02:02:07.166Z,23.40
2023-01-27T02:04:37.331Z,20.42
2023-01-27T02:07:08.704Z,23.65
2023-01-27T02:11:59.945Z,25.73
2023-01-27T02:14:24.763Z,25.90
2023-01-27T02:16:51.372Z,26.38
2023-01-27T02:19:29.126Z,25.45
2023-01-27T02:21:55.888Z,20.70
2023-01-27T02:24:21.549Z,22.85
2023-01-27T02:26:48.492Z,18.55
2023-01-27T02:29:15.586Z,21.35
2023-01-27T02:31:40.788Z,16.42
2023-01-27T02:34:10.033Z,22.83
2023-01-27T02:36:37.877Z,16.20
2023-01-27T02:39:03.527Z,21.88
2023-01-27T02:41:32.711Z,20.48
2023-01-27T02:43:59.357Z,21.90
2023-01-27T02:46:24.509Z,18.10
2023-01-27T02:48:49.763Z,23.10
2023-01-27T02:51:14.681Z,14.80
2023-01-27T02:53:41.419Z,19.88
2023-01-27T02:56:06.859Z,17.42
2023-01-27T02:58:31.555Z,20.40
2023-01-27T03:01:06.289Z,18.83
2023-01-27T03:03:32.192Z,23.90
2023-01-27T03:05:56.903Z,19.65
2023-01-27T03:08:21.586Z,18.38
2023-01-27T03:10:46.974Z,20.77
2023-01-27T03:13:11.884Z,22.25
2023-01-27T03:15:55.725Z,22.77
2023-01-27T03:18:22.659Z,20.88
2023-01-27T03:20:49.075Z,22.85
2023-01-27T03:23:14.973Z,16.73
2023-01-27T03:25:46.230Z,19.15
2023-01-27T03:28:12.123Z,18.88
2023-01-27T03:30:46.007Z,19.70
2023-01-27T03:33:32.148Z,14.65
2023-01-27T03:36:20.175Z,16.67
2023-01-27T03:39:05.076Z,22.73
2023-01-27T03:41:47.705Z,22.98
2023-01-27T03:44:30.223Z,20.15
2023-01-27T03:46:55.086Z,23.95
2023-01-27T03:49:21.448Z,13.95
2023-01-27T03:51:46.033Z,15.95
2023-01-27T03:54:11.283Z,16.45
2023-01-27T03:56:35.865Z,17.08
2023-01-27T03:59:00.467Z,24.40
2023-01-27T04:01:26.380Z,21.70
2023-01-27T04:04:09.080Z,17.75
2023-01-27T04:06:54.695Z,15.55
2023-01-27T04:09:24.597Z,18.83
2023-01-27T04:14:21.689Z,15.48
2023-01-27T04:16:46.706Z,14.20
2023-01-27T04:19:12.365Z,21.80
2023-01-27T04:21:38.628Z,19.63
2023-01-27T04:24:05.455Z,17.55
2023-01-27T04:26:33.371Z,20.77
2023-01-27T04:28:58.159Z,24.48
2023-01-27T04:31:22.635Z,22.60
2023-01-27T04:33:47.623Z,18.48
2023-01-27T04:36:12.898Z,20.65
2023-01-27T04:38:38.985Z,20.63
2023-01-27T04:41:03.757Z,22.33
2023-01-27T04:43:28.893Z,15.13
2023-01-27T04:45:53.598Z,23.40
2023-01-27T04:48:18.492Z,21.48
2023-01-27T04:50:43.019Z,22.35
2023-01-27T04:53:07.604Z,16.67
2023-01-27T04:55:34.181Z,24.85
2023-01-27T04:57:59.531Z,14.95
2023-01-27T05:00:24.262Z,15.73
2023-01-27T05:02:48.860Z,26.33
2023-01-27T05:05:13.906Z,18.60
2023-01-27T05:07:40.326Z,19.40
2023-01-27T05:10:04.900Z,18.65
2023-01-27T05:12:31.623Z,25.27
2023-01-27T05:14:56.634Z,21.17
2023-01-27T05:17:21.265Z,24.45
2023-01-27T05:19:46.162Z,19.63
2023-01-27T05:22:11.687Z,19.00
2023-01-27T05:24:36.171Z,15.82
2023-01-27T05:27:00.819Z,21.80
2023-01-27T05:29:27.831Z,21.73
2023-01-27T05:31:52.551Z,19.92
2023-01-27T05:34:17.315Z,21.95
2023-01-27T05:36:41.884Z,21.50
2023-01-27T05:39:08.792Z,22.70
2023-01-27T05:41:33.735Z,18.30
2023-01-27T05:43:58.677Z,22.60
2023-01-27T05:46:27.505Z,21.50
2023-01-27T05:48:53.583Z,20.67
2023-01-27T05:51:20.309Z,13.95
2023-01-27T05:53:45.170Z,19.65
2023-01-27T05:56:12.988Z,17.30
2023-01-27T05:58:38.094Z,19.50
2023-01-27T06:01:09.147Z,20.70
2023-01-27T06:03:35.302Z,18.85
2023-01-27T06:05:59.956Z,23.00
2023-01-27T06:08:25.538Z,23.80
2023-01-27T06:10:54.259Z,24.33
2023-01-27T06:13:19.168Z,20.63
2023-01-27T06:15:44.949Z,21.65
2023-01-27T06:18:09.528Z,20.08
2023-01-27T06:20:35.643Z,21.17
2023-01-27T06:23:01.900Z,17.17
2023-01-27T06:25:28.142Z,19.65
2023-01-27T06:27:56.233Z,20.05
2023-01-27T06:30:20.812Z,18.45
2023-01-27T06:32:45.541Z,17.63
2023-01-27T06:35:10.326Z,18.45
2023-01-27T06:37:36.948Z,21.00
2023-01-27T06:40:01.450Z,18.95
2023-01-27T06:42:26.094Z,17.55
2023-01-27T06:44:51.089Z,21.65
2023-01-27T06:47:15.652Z,17.38
2023-01-27T06:49:40.170Z,19.08
2023-01-27T06:52:04.684Z,21.83
2023-01-27T06:54:30.807Z,15.73
2023-01-27T06:56:55.651Z,15.45
2023-01-27T06:59:20.443Z,16.20
2023-01-27T07:01:44.975Z,20.15
2023-01-27T07:04:09.736Z,16.55
2023-01-27T07:06:34.752Z,20.08
2023-01-27T07:08:59.768Z,12.25
2023-01-27T07:11:26.133Z,17.33
2023-01-27T07:13:50.533Z,17.02
2023-01-27T07:16:15.088Z,14.77
2023-01-27T07:18:51.102Z,18.48
2023-01-27T07:21:30.733Z,18.10
2023-01-27T07:23:55.243Z,13.38
2023-01-27T07:26:25.172Z,13.85
2023-01-27T07:28:51.667Z,16.80
2023-01-27T07:31:20.535Z,17.73
2023-01-27T07:33:49.851Z,16.15
2023-01-27T07:36:14.863Z,14.75
2023-01-27T07:38:39.966Z,11.95
2023-01-27T07:41:06.283Z,16.27
2023-01-27T07:43:31.435Z,16.45
2023-01-27T07:45:58.196Z,14.95
2023-01-27T07:48:22.773Z,15.05
2023-01-27T07:50:47.540Z,13.45
2023-01-27T07:53:12.792Z,13.85
2023-01-27T07:58:29.897Z,13.40
2023-01-27T08:00:54.843Z,13.18
2023-01-27T08:03:24.361Z,14.45
2023-01-27T08:05:51.130Z,9.93
2023-01-27T08:08:15.942Z,10.57
2023-01-27T08:10:42.779Z,10.90
2023-01-27T08:13:07.897Z,10.07
2023-01-27T08:15:32.690Z,15.73
2023-01-27T08:17:57.905Z,11.30
2023-01-27T08:20:24.854Z,10.20
2023-01-27T08:22:50.924Z,13.57
2023-01-27T08:25:15.931Z,16.33
2023-01-27T08:27:41.065Z,10.98
2023-01-27T08:30:09.275Z,11.43
2023-01-27T08:32:35.167Z,14.50
2023-01-27T08:34:59.944Z,15.45
2023-01-27T08:37:26.168Z,16.60
2023-01-27T08:39:50.996Z,16.00
2023-01-27T08:42:15.818Z,13.68
2023-01-27T08:44:42.032Z,12.60
2023-01-27T08:47:06.764Z,14.55
2023-01-27T08:49:31.462Z,14.40
2023-01-27T08:51:56.222Z,11.90
2023-01-27T08:54:22.494Z,11.18
2023-01-27T08:56:47.054Z,11.07
2023-01-27T08:59:12.235Z,10.85
2023-01-27T09:01:37.072Z,14.18
2023-01-27T09:04:01.799Z,13.68
2023-01-27T09:06:26.809Z,11.57
2023-01-27T09:09:11.483Z,9.25
2023-01-27T09:11:39.305Z,13.65
2023-01-27T09:14:04.215Z,14.15
2023-01-27T09:16:29.308Z,10.02
2023-01-27T09:18:54.048Z,14.82
2023-01-27T09:21:19.099Z,13.95
2023-01-27T09:23:43.965Z,12.32
2023-01-27T09:26:09.105Z,12.38
2023-01-27T09:28:35.759Z,11.98
2023-01-27T09:31:01.203Z,13.32
2023-01-27T09:33:27.126Z,11.73
2023-01-27T09:35:57.709Z,11.95
2023-01-27T09:38:25.416Z,10.77
2023-01-27T09:41:05.408Z,11.82
2023-01-27T09:43:57.297Z,11.73
2023-01-27T09:46:54.909Z,13.05
2023-01-27T09:49:35.228Z,10.25
2023-01-27T09:52:15.986Z,12.18
2023-01-27T09:54:54.143Z,10.23
2023-01-27T09:57:29.374Z,14.60
2023-01-27T10:00:09.808Z,10.35
2023-01-27T10:03:09.776Z,12.27
2023-01-27T10:06:03.238Z,11.63
2023-01-27T10:09:05.209Z,9.50
2023-01-27T10:11:39.160Z,11.65
2023-01-27T10:14:16.194Z,9.98
2023-01-27T10:17:11.696Z,8.40
2023-01-27T10:19:51.351Z,8.30
2023-01-27T10:22:23.580Z,11.00
2023-01-27T10:25:00.348Z,10.70
2023-01-27T10:27:26.787Z,9.88
2023-01-27T10:29:58.274Z,12.05
2023-01-27T10:32:28.452Z,11.52
2023-01-27T10:35:02.373Z,11.38
2023-01-27T10:37:33.667Z,9.27
2023-01-27T10:40:06.377Z,11.20
2023-01-27T10:42:37.608Z,9.43
2023-01-27T10:45:19.450Z,10.05
2023-01-27T10:47:58.613Z,10.27
2023-01-27T10:50:28.473Z,13.43
2023-01-27T10:53:00.223Z,10.60
2023-01-27T10:55:29.888Z,11.65
2023-01-27T10:58:00.172Z,8.23
2023-01-27T11:01:04.647Z,9.88
2023-01-27T11:03:27.327Z,9.85
2023-01-27T11:05:54.795Z,11.25
2023-01-27T11:08:22.010Z,11.38
2023-01-27T11:11:02.763Z,10.90
2023-01-27T11:13:27.780Z,10.95
2023-01-27T11:15:52.149Z,10.57
2023-01-27T11:18:24.282Z,10.13
2023-01-27T11:20:54.585Z,11.55
2023-01-27T11:23:21.152Z,11.40
2023-01-27T11:25:50.308Z,10.07
2023-01-27T11:28:27.020Z,12.18
2023-01-27T11:31:02.903Z,11.15
2023-01-27T11:33:38.039Z,7.75
2023-01-27T11:36:02.544Z,12.18
2023-01-27T11:38:27.560Z,13.85
2023-01-27T11:40:54.347Z,16.17
2023-01-27T11:43:22.540Z,9.45
2023-01-27T11:45:47.573Z,7.05
2023-01-27T11:48:16.106Z,8.63
2023-01-27T11:50:43.478Z,9.88
2023-01-27T11:53:19.049Z,9.90
2023-01-27T11:55:48.266Z,7.97
2023-01-27T11:58:20.754Z,9.35
2023-01-27T12:00:49.062Z,9.43
2023-01-27T12:03:22.082Z,10.25
2023-01-27T12:05:55.067Z,8.27
2023-01-27T12:08:38.224Z,9.18
2023-01-27T12:11:19.211Z,9.98
2023-01-27T12:13:50.963Z,9.98
2023-01-27T12:16:15.886Z,8.57
2023-01-27T12:18:51.082Z,8.90
2023-01-27T12:21:17.363Z,8.27
2023-01-27T12:23:51.127Z,8.90
2023-01-27T12:26:16.017Z,8.90
2023-01-27T12:28:44.294Z,10.00
2023-01-27T12:31:12.015Z,8.15
2023-01-27T12:33:39.926Z,8.48
2023-01-27T12:36:13.184Z,9.13
2023-01-27T12:38:39.137Z,8.75
2023-01-27T12:41:05.673Z,9.73
2023-01-27T12:43:31.352Z,6.78
2023-01-27T12:46:10.791Z,8.55
2023-01-27T12:48:36.421Z,9.43
2023-01-27T12:51:11.282Z,9.50
2023-01-27T12:53:35.885Z,11.07
2023-01-27T12:56:11.253Z,10.82
2023-01-27T12:58:37.644Z,11.38
2023-01-27T13:01:04.929Z,8.93
2023-01-27T13:03:31.156Z,7.35
2023-01-27T13:05:56.947Z,7.78
2023-01-27T13:08:23.102Z,11.60
2023-01-27T13:10:52.557Z,9.82
2023-01-27T13:13:20.787Z,11.25
2023-01-27T13:15:54.014Z,7.60
2023-01-27T13:18:22.161Z,7.28
2023-01-27T13:20:51.597Z,10.93
2023-01-27T13:25:55.861Z,11.25
2023-01-27T13:28:39.687Z,10.18
2023-01-27T13:31:17.008Z,10.73
2023-01-27T13:33:46.126Z,11.30
2023-01-27T13:36:22.061Z,9.32
2023-01-27T13:38:53.604Z,11.07
2023-01-27T13:41:23.896Z,10.98
2023-01-27T13:43:59.345Z,10.70
2023-01-27T13:46:28.341Z,10.90
2023-01-27T13:48:56.199Z,11.98
2023-01-27T13:51:23.173Z,10.15
2023-01-27T13:53:49.176Z,11.23
2023-01-27T13:56:30.130Z,10.73
2023-01-27T13:59:07.286Z,9.23
2023-01-27T14:01:44.429Z,12.10
2023-01-27T14:04:47.362Z,12.50
2023-01-27T14:07:22.504Z,11.05
2023-01-27T14:10:00.150Z,11.52
2023-01-27T14:12:41.119Z,8.40
2023-01-27T14:15:23.124Z,10.63
2023-01-27T14:17:58.133Z,10.60
2023-01-27T14:20:37.505Z,11.07
2023-01-27T14:23:15.717Z,8.63
2023-01-27T14:25:49.847Z,12.68
2023-01-27T14:28:24.787Z,10.07
2023-01-27T14:30:56.675Z,12.80
2023-01-27T14:33:30.717Z,12.32
2023-01-27T14:36:01.274Z,10.85
2023-01-27T14:38:33.028Z,12.80
2023-01-27T14:41:11.686Z,12.18
2023-01-27T14:43:42.924Z,9.80
2023-01-27T14:46:18.978Z,10.63
2023-01-27T14:48:53.481Z,12.02
2023-01-27T14:51:29.289Z,10.07
2023-01-27T14:54:05.073Z,7.00
2023-01-27T14:56:40.905Z,14.85
2023-01-27T14:59:15.179Z,12.43
2023-01-27T15:01:49.193Z,10.43
2023-01-27T15:04:46.674Z,15.10
2023-01-27T15:07:19.344Z,9.70
2023-01-27T15:10:01.710Z,8.20
2023-01-27T15:12:41.692Z,11.57
2023-01-27T15:15:34.573Z,8.70
2023-01-27T15:18:21.774Z,8.73
2023-01-27T15:21:09.533Z,12.70
2023-01-27T15:24:08.245Z,12.13
2023-01-27T15:26:34.872Z,12.77
2023-01-27T15:29:00.801Z,8.65
2023-01-27T15:31:28.116Z,11.10
2023-01-27T15:33:56.917Z,9.63
2023-01-27T15:36:32.797Z,11.88
2023-01-27T15:39:01.652Z,11.95
2023-01-27T15:41:27.004Z,10.98
2023-01-27T15:44:06.690Z,10.45
2023-01-27T15:46:34.890Z,8.80
2023-01-27T15:49:04.905Z,11.80
2023-01-27T15:51:32.730Z,11.80
2023-01-27T15:54:00.141Z,8.93
2023-01-27T15:56:50.644Z,12.18
2023-01-27T15:59:25.885Z,10.98
2023-01-27T16:01:52.250Z,9.55
2023-01-27T16:04:25.879Z,11.18
2023-01-27T16:06:54.662Z,11.85
2023-01-27T16:09:31.711Z,11.80
2023-01-27T16:12:03.451Z,13.52
2023-01-27T16:14:43.020Z,13.48
2023-01-27T16:17:22.033Z,11.23
2023-01-27T16:19:56.585Z,12.43
2023-01-27T16:22:23.788Z,10.30
2023-01-27T16:24:56.382Z,10.23
2023-01-27T16:27:32.330Z,9.77
2023-01-27T16:30:00.750Z,12.07
2023-01-27T16:32:32.300Z,8.60
2023-01-27T16:35:04.581Z,8.57
2023-01-27T16:37:34.671Z,10.25
2023-01-27T16:40:07.394Z,7.50
2023-01-27T16:42:35.724Z,10.52
2023-01-27T16:45:03.787Z,11.20
2023-01-27T16:47:31.822Z,10.15
2023-01-27T16:49:57.216Z,10.95
2023-01-27T16:52:41.146Z,12.55
2023-01-27T16:55:07.499Z,11.02
2023-01-27T16:57:35.580Z,9.38
2023-01-27T17:00:04.199Z,8.13
2023-01-27T17:02:32.216Z,13.73
2023-01-27T17:05:00.173Z,12.73
2023-01-27T17:07:26.848Z,11.27
2023-01-27T17:09:54.923Z,13.07
2023-01-27T17:12:31.547Z,12.40
2023-01-27T17:14:57.559Z,7.65
2023-01-27T17:17:24.832Z,10.60
2023-01-27T17:19:50.959Z,10.80
2023-01-27T17:22:24.352Z,12.15
2023-01-27T17:24:55.221Z,10.02
2023-01-27T17:27:25.871Z,10.93
2023-01-27T17:29:52.902Z,12.52
2023-01-27T17:32:22.578Z,11.50
2023-01-27T17:34:48.517Z,12.27
2023-01-27T17:37:18.217Z,9.85
2023-01-27T17:39:44.496Z,10.65
2023-01-27T17:42:15.415Z,10.55
2023-01-27T17:44:40.175Z,13.43
2023-01-27T17:47:07.251Z,14.27
2023-01-27T17:49:33.098Z,10.25
2023-01-27T17:51:58.943Z,10.95
2023-01-27T17:54:27.775Z,12.13
2023-01-27T17:56:58.340Z,11.50
2023-01-27T17:59:27.345Z,10.35
2023-01-27T18:01:54.801Z,13.95
2023-01-27T18:04:20.374Z,13.02
2023-01-27T18:06:44.840Z,10.43
2023-01-27T18:09:19.819Z,13.07
2023-01-27T18:11:54.655Z,9.63
2023-01-27T18:14:22.333Z,9.82
2023-01-27T18:16:58.569Z,9.98
2023-01-27T18:19:25.790Z,9.35
2023-01-27T18:21:50.888Z,14.70
2023-01-27T18:24:22.482Z,11.98
2023-01-27T18:26:48.217Z,12.82
2023-01-27T18:29:23.111Z,14.82
2023-01-27T18:31:52.250Z,11.48
2023-01-27T18:34:25.864Z,10.93
2023-01-27T18:36:56.131Z,9.63
2023-01-27T18:39:34.056Z,13.57
2023-01-27T18:41:58.616Z,13.10
2023-01-27T18:44:34.559Z,13.38
2023-01-27T18:47:18.061Z,10.68
2023-01-27T18:49:43.279Z,13.73
2023-01-27T18:52:12.703Z,11.18
2023-01-27T18:54:37.247Z,14.07
2023-01-27T18:57:01.959Z,12.18
2023-01-27T18:59:31.120Z,11.52
2023-01-27T19:01:56.573Z,12.27
2023-01-27T19:04:23.929Z,12.90
2023-01-27T19:06:48.437Z,12.00
2023-01-27T19:09:13.591Z,11.32
2023-01-27T19:11:38.136Z,12.82
2023-01-27T19:14:02.857Z,13.95
2023-01-27T19:16:27.761Z,11.32
2023-01-27T19:18:53.007Z,10.75
2023-01-27T19:21:19.165Z,14.02
2023-01-27T19:23:44.596Z,12.23
2023-01-27T19:26:17.477Z,14.50
2023-01-27T19:28:42.104Z,10.15
2023-01-27T19:31:07.608Z,13.82
2023-01-27T19:33:33.484Z,10.63
2023-01-27T19:36:00.736Z,11.38
2023-01-27T19:38:28.545Z,8.02
2023-01-27T19:40:53.052Z,10.40
2023-01-27T19:43:17.608Z,10.77
2023-01-27T19:45:42.447Z,13.55
2023-01-27T19:48:11.632Z,14.90
2023-01-27T19:50:36.212Z,13.02
2023-01-27T19:53:01.150Z,13.65
2023-01-27T19:55:27.545Z,13.13
2023-01-27T19:57:53.903Z,13.30
2023-01-27T20:00:29.704Z,11.48
2023-01-27T20:02:55.291Z,11.10
2023-01-27T20:05:21.236Z,12.57
2023-01-27T20:07:46.492Z,17.00
2023-01-27T20:10:19.314Z,17.45
2023-01-27T20:12:46.203Z,16.38
2023-01-27T20:15:18.015Z,15.80
2023-01-27T20:17:42.729Z,14.90
2023-01-27T20:20:08.059Z,12.90
2023-01-27T20:22:32.765Z,14.23
2023-01-27T20:24:57.850Z,16.90
2023-01-27T20:27:22.832Z,14.02
2023-01-27T20:29:49.067Z,15.32
2023-01-27T20:32:14.054Z,13.52
2023-01-27T20:34:38.801Z,15.32
2023-01-27T20:37:03.951Z,13.63
2023-01-27T20:39:31.703Z,13.15
2023-01-27T20:41:57.472Z,16.70
2023-01-27T20:44:22.101Z,16.08
2023-01-27T20:46:48.214Z,14.95
2023-01-27T20:49:13.129Z,19.20
2023-01-27T20:51:37.689Z,14.10
2023-01-27T20:54:02.556Z,12.85
2023-01-27T20:56:27.269Z,14.70
2023-01-27T20:58:52.354Z,14.20
2023-01-27T21:01:19.812Z,14.52
2023-01-27T21:03:46.701Z,15.18
2023-01-27T21:06:13.068Z,15.15
2023-01-27T21:08:38.437Z,15.70
2023-01-27T21:11:03.793Z,14.35
2023-01-27T21:13:28.779Z,15.55
2023-01-27T21:15:53.185Z,13.00
2023-01-27T21:18:18.406Z,13.35
2023-01-27T21:20:48.795Z,15.50
2023-01-27T21:23:13.648Z,16.02
2023-01-27T21:25:38.323Z,17.70
2023-01-27T21:28:03.071Z,14.48
2023-01-27T21:30:28.524Z,14.90
2023-01-27T21:32:53.145Z,14.93
2023-01-27T21:35:17.767Z,14.13
2023-01-27T21:37:44.031Z,14.30
2023-01-27T21:40:09.735Z,15.07
2023-01-27T21:42:52.281Z,18.02
2023-01-27T21:45:17.670Z,17.08
2023-01-27T21:47:42.648Z,15.18
2023-01-27T21:50:09.694Z,15.30
2023-01-27T21:52:37.648Z,19.23
2023-01-27T21:55:05.842Z,14.93
2023-01-27T21:57:30.622Z,15.70
2023-01-27T21:59:55.393Z,13.73
2023-01-27T22:02:22.819Z,15.88
2023-01-27T22:04:48.439Z,11.60
2023-01-27T22:07:15.449Z,15.40
2023-01-27T22:09:41.207Z,14.07
2023-01-27T22:12:09.535Z,15.35
2023-01-27T22:14:34.292Z,15.25
2023-01-27T22:16:58.929Z,11.65
2023-01-27T22:19:23.670Z,13.05
2023-01-27T22:21:48.142Z,13.35
2023-01-27T22:24:13.433Z,14.32
2023-01-27T22:26:37.869Z,14.35
2023-01-27T22:29:03.809Z,15.20
2023-01-27T22:31:28.368Z,15.13
2023-01-27T22:33:53.159Z,13.30
2023-01-27T22:36:18.163Z,12.55
2023-01-27T22:38:42.778Z,13.45
2023-01-27T22:41:07.848Z,11.38
2023-01-27T22:43:33.157Z,14.57
2023-01-27T22:46:01.968Z,14.45
2023-01-27T22:48:26.741Z,14.83
2023-01-27T22:50:51.221Z,14.02
2023-01-27T22:53:15.816Z,13.55
2023-01-27T22:55:40.403Z,14.05
2023-01-27T22:58:05.265Z,17.95
2023-01-27T23:00:29.916Z,13.52
2023-01-27T23:02:56.211Z,17.15
2023-01-27T23:05:21.447Z,15.68
2023-01-27T23:07:48.026Z,15.15
2023-01-27T23:10:12.983Z,14.73
2023-01-27T23:12:37.536Z,15.48
2023-01-27T23:15:03.816Z,13.88
2023-01-27T23:17:28.935Z,14.70
2023-01-27T23:19:55.113Z,16.73
2023-01-27T23:22:20.039Z,15.48
2023-01-27T23:24:44.896Z,15.73
2023-01-27T23:27:09.333Z,15.43
2023-01-27T23:29:34.003Z,15.02
2023-01-27T23:31:58.904Z,17.10
2023-01-27T23:34:26.695Z,15.52
2023-01-27T23:36:53.178Z,18.23
2023-01-27T23:39:18.277Z,16.05
2023-01-27T23:41:43.294Z,15.00
2023-01-27T23:44:08.081Z,17.17
2023-01-27T23:46:32.983Z,14.85
2023-01-27T23:48:57.834Z,16.77
2023-01-27T23:51:23.794Z,18.75
2023-01-27T23:53:50.146Z,16.75
2023-01-27T23:56:15.899Z,15.25
2023-01-27T23:58:40.579Z,17.92
